sensor_id;sensor_type;location;lat;lon;timestamp;pressure;altitude;pressure_sealevel;temperature;humidity
5877;BME280;2964;42.144;24.730;2022-11-20T00:00:29;144780.16;;;12.88;100.00
5877;BME280;2964;42.144;24.730;2022-11-20T00:02:56;144846.84;;;13.16;100.00
5877;BME280;2964;42.144;24.730;2022-11-20T00:05:24;144689.56;;;12.51;100.00
5877;BME280;2964;42.144;24.730;2022-11-20T00:07:50;144851.88;;;13.18;100.00
5877;BME280;2964;42.144;24.730;2022-11-20T00:10:17;144787.72;;;12.91;100.00
5877;BME280;2964;42.144;24.730;2022-11-20T00:12:44;144758.75;;;12.80;100.00
5877;BME280;2964;42.144;24.730;2022-11-20T00:15:10;144684.53;;;12.49;100.00
5877;BME280;2964;42.144;24.730;2022-11-20T00:17:37;144758.75;;;12.80;100.00
5877;BME280;2964;42.144;24.730;2022-11-20T00:20:04;144732.38;;;12.69;100.00
5877;BME280;2964;42.144;24.730;2022-11-20T00:22:32;144704.63;;;12.58;100.00
5877;BME280;2964;42.144;24.730;2022-11-20T00:24:59;144732.38;;;12.69;100.00
5877;BME280;2964;42.144;24.730;2022-11-20T00:27:26;144807.81;;;13.00;100.00
5877;BME280;2964;42.144;24.730;2022-11-20T00:29:52;144737.38;;;12.71;100.00
5877;BME280;2964;42.144;24.730;2022-11-20T00:32:19;144744.91;;;12.74;100.00
5877;BME280;2964;42.144;24.730;2022-11-20T00:34:46;144843.06;;;13.14;100.00
5877;BME280;2964;42.144;24.730;2022-11-20T00:37:13;144762.53;;;12.81;100.00
5877;BME280;2964;42.144;24.730;2022-11-20T00:39:40;144690.81;;;12.52;100.00
5877;BME280;2964;42.144;24.730;2022-11-20T00:42:07;144728.56;;;12.67;100.00
5877;BME280;2964;42.144;24.730;2022-11-20T00:44:34;144718.47;;;12.63;100.00
5877;BME280;2964;42.144;24.730;2022-11-20T00:47:00;144742.41;;;12.73;100.00
5877;BME280;2964;42.144;24.730;2022-11-20T00:49:27;144843.06;;;13.14;100.00
5877;BME280;2964;42.144;24.730;2022-11-20T00:51:54;144780.16;;;12.88;100.00
5877;BME280;2964;42.144;24.730;2022-11-20T00:54:20;144747.44;;;12.75;100.00
5877;BME280;2964;42.144;24.730;2022-11-20T00:56:48;144792.75;;;12.93;100.00
5877;BME280;2964;42.144;24.730;2022-11-20T00:59:15;144822.97;;;13.06;100.00
5877;BME280;2964;42.144;24.730;2022-11-20T01:01:42;144855.69;;;13.19;100.00
5877;BME280;2964;42.144;24.730;2022-11-20T01:04:08;144805.34;;;12.99;100.00
5877;BME280;2964;42.144;24.730;2022-11-20T01:06:36;144800.31;;;12.97;100.00
5877;BME280;2964;42.144;24.730;2022-11-20T01:09:05;144760.03;;;12.80;100.00
5877;BME280;2964;42.144;24.730;2022-11-20T01:11:34;144799.00;;;12.96;100.00
5877;BME280;2964;42.144;24.730;2022-11-20T01:14:07;144840.53;;;13.13;100.00
5877;BME280;2964;42.144;24.730;2022-11-20T01:16:36;144913.63;;;13.43;100.00
5877;BME280;2964;42.144;24.730;2022-11-20T01:19:04;144840.53;;;13.13;100.00
5877;BME280;2964;42.144;24.730;2022-11-20T01:21:33;144845.63;;;13.15;100.00
5877;BME280;2964;42.144;24.730;2022-11-20T01:24:01;144819.19;;;13.04;100.00
5877;BME280;2964;42.144;24.730;2022-11-20T01:26:29;144836.81;;;13.11;100.00
5877;BME280;2964;42.144;24.730;2022-11-20T01:28:57;144877.09;;;13.28;100.00
5877;BME280;2964;42.144;24.730;2022-11-20T01:31:27;144877.09;;;13.28;100.00
5877;BME280;2964;42.144;24.730;2022-11-20T01:33:55;144908.56;;;13.41;100.00
5877;BME280;2964;42.144;24.730;2022-11-20T01:36:24;144878.31;;;13.28;100.00
5877;BME280;2964;42.144;24.730;2022-11-20T01:38:51;144890.97;;;13.34;100.00
5877;BME280;2964;42.144;24.730;2022-11-20T01:41:18;144890.97;;;13.34;100.00
5877;BME280;2964;42.144;24.730;2022-11-20T01:43:59;144946.34;;;13.56;100.00
5877;BME280;2964;42.144;24.730;2022-11-20T01:46:27;144960.22;;;13.62;100.00
5877;BME280;2964;42.144;24.730;2022-11-20T01:48:56;144906.06;;;13.40;100.00
5877;BME280;2964;42.144;24.730;2022-11-20T01:51:28;144950.16;;;13.58;100.00
5877;BME280;2964;42.144;24.730;2022-11-20T01:53:58;144950.16;;;13.58;100.00
5877;BME280;2964;42.144;24.730;2022-11-20T01:56:26;145001.75;;;13.79;100.00
5877;BME280;2964;42.144;24.730;2022-11-20T01:58:56;144953.88;;;13.59;100.00
5877;BME280;2964;42.144;24.730;2022-11-20T02:01:24;144919.91;;;13.45;100.00
5877;BME280;2964;42.144;24.730;2022-11-20T02:03:53;144947.59;;;13.57;100.00
5877;BME280;2964;42.144;24.730;2022-11-20T02:06:23;144888.44;;;13.32;100.00
5877;BME280;2964;42.144;24.730;2022-11-20T02:08:51;144989.16;;;13.74;100.00
5877;BME280;2964;42.144;24.730;2022-11-20T02:11:17;144926.19;;;13.48;100.00
5877;BME280;2964;42.144;24.730;2022-11-20T02:13:45;144918.66;;;13.45;100.00
5877;BME280;2964;42.144;24.730;2022-11-20T02:16:19;144984.13;;;13.71;100.00
5877;BME280;2964;42.144;24.730;2022-11-20T02:18:47;144913.63;;;13.43;100.00
5877;BME280;2964;42.144;24.730;2022-11-20T02:21:23;144890.97;;;13.34;100.00
5877;BME280;2964;42.144;24.730;2022-11-20T02:24:03;144960.22;;;13.62;100.00
5877;BME280;2964;42.144;24.730;2022-11-20T02:26:33;144996.72;;;13.77;100.00
5877;BME280;2964;42.144;24.730;2022-11-20T02:29:02;145018.13;;;13.85;100.00
5877;BME280;2964;42.144;24.730;2022-11-20T02:31:33;144966.47;;;13.64;100.00
5877;BME280;2964;42.144;24.730;2022-11-20T02:34:00;144756.25;;;12.79;100.00
5877;BME280;2964;42.144;24.730;2022-11-20T02:36:27;144885.91;;;13.31;100.00
5877;BME280;2964;42.144;24.730;2022-11-20T02:38:54;144926.19;;;13.48;100.00
5877;BME280;2964;42.144;24.730;2022-11-20T02:41:30;144945.13;;;13.56;100.00
5877;BME280;2964;42.144;24.730;2022-11-20T02:43:57;144966.47;;;13.64;100.00
5877;BME280;2964;42.144;24.730;2022-11-20T02:46:24;144972.81;;;13.67;100.00
5877;BME280;2964;42.144;24.730;2022-11-20T02:48:50;144933.75;;;13.51;100.00
5877;BME280;2964;42.144;24.730;2022-11-20T02:51:17;144979.09;;;13.69;100.00
5877;BME280;2964;42.144;24.730;2022-11-20T02:53:44;145073.53;;;14.08;100.00
5877;BME280;2964;42.144;24.730;2022-11-20T02:56:10;145016.84;;;13.85;100.00
5877;BME280;2964;42.144;24.730;2022-11-20T02:58:38;145097.47;;;14.18;100.00
5877;BME280;2964;42.144;24.730;2022-11-20T03:01:05;145094.97;;;14.17;100.00
5877;BME280;2964;42.144;24.730;2022-11-20T03:03:32;145044.59;;;13.96;100.00
5877;BME280;2964;42.144;24.730;2022-11-20T03:05:59;144981.63;;;13.70;100.00
5877;BME280;2964;42.144;24.730;2022-11-20T03:08:25;145047.09;;;13.97;100.00
5877;BME280;2964;42.144;24.730;2022-11-20T03:10:52;145106.28;;;14.21;100.00
5877;BME280;2964;42.144;24.730;2022-11-20T03:13:19;145071.00;;;14.07;100.00
5877;BME280;2964;42.144;24.730;2022-11-20T03:15:47;145178.09;;;14.51;100.00
5877;BME280;2964;42.144;24.730;2022-11-20T03:18:13;145164.25;;;14.45;100.00
5877;BME280;2964;42.144;24.730;2022-11-20T03:20:40;145173.06;;;14.48;100.00
5877;BME280;2964;42.144;24.730;2022-11-20T03:23:07;145094.97;;;14.17;100.00
5877;BME280;2964;42.144;24.730;2022-11-20T03:25:33;145084.84;;;14.13;100.00
5877;BME280;2964;42.144;24.730;2022-11-20T03:28:00;145067.25;;;14.05;100.00
5877;BME280;2964;42.144;24.730;2022-11-20T03:30:27;145106.28;;;14.21;100.00
5877;BME280;2964;42.144;24.730;2022-11-20T03:32:55;145165.50;;;14.45;100.00
5877;BME280;2964;42.144;24.730;2022-11-20T03:35:22;145179.34;;;14.51;100.00
5877;BME280;2964;42.144;24.730;2022-11-20T03:37:48;145137.78;;;14.34;100.00
5877;BME280;2964;42.144;24.730;2022-11-20T03:40:15;144805.34;;;12.99;100.00
5877;BME280;2964;42.144;24.730;2022-11-20T03:42:42;145151.63;;;14.40;100.00
5877;BME280;2964;42.144;24.730;2022-11-20T03:45:12;145077.34;;;14.09;100.00
5877;BME280;2964;42.144;24.730;2022-11-20T03:47:39;145117.63;;;14.26;100.00
5877;BME280;2964;42.144;24.730;2022-11-20T03:50:08;145092.44;;;14.16;100.00
5877;BME280;2964;42.144;24.730;2022-11-20T03:52:34;145176.84;;;14.50;100.00
5877;BME280;2964;42.144;24.730;2022-11-20T03:55:01;145102.50;;;14.20;100.00
5877;BME280;2964;42.144;24.730;2022-11-20T03:57:28;145029.44;;;13.90;100.00
5877;BME280;2964;42.144;24.730;2022-11-20T03:59:55;145016.84;;;13.85;100.00
5877;BME280;2964;42.144;24.730;2022-11-20T04:02:22;145016.84;;;13.85;100.00
5877;BME280;2964;42.144;24.730;2022-11-20T04:04:48;144955.19;;;13.60;100.00
5877;BME280;2964;42.144;24.730;2022-11-20T04:07:16;144931.22;;;13.50;100.00
5877;BME280;2964;42.144;24.730;2022-11-20T04:09:43;144956.41;;;13.60;100.00
5877;BME280;2964;42.144;24.730;2022-11-20T04:12:10;144991.69;;;13.75;100.00
5877;BME280;2964;42.144;24.730;2022-11-20T04:14:36;144976.59;;;13.68;100.00
5877;BME280;2964;42.144;24.730;2022-11-20T04:17:04;144912.34;;;13.42;100.00
5877;BME280;2964;42.144;24.730;2022-11-20T04:19:30;144921.16;;;13.46;100.00
5877;BME280;2964;42.144;24.730;2022-11-20T04:21:57;144906.06;;;13.40;100.00
5877;BME280;2964;42.144;24.730;2022-11-20T04:24:26;144918.66;;;13.45;100.00
5877;BME280;2964;42.144;24.730;2022-11-20T04:26:52;144969.03;;;13.65;100.00
5877;BME280;2964;42.144;24.730;2022-11-20T04:29:19;144894.72;;;13.35;100.00
5877;BME280;2964;42.144;24.730;2022-11-20T04:31:46;144883.41;;;13.30;100.00
5877;BME280;2964;42.144;24.730;2022-11-20T04:34:12;144903.53;;;13.39;100.00
5877;BME280;2964;42.144;24.730;2022-11-20T04:36:39;144943.81;;;13.55;100.00
5877;BME280;2964;42.144;24.730;2022-11-20T04:39:06;144938.78;;;13.53;100.00
5877;BME280;2964;42.144;24.730;2022-11-20T04:41:35;144984.13;;;13.71;100.00
5877;BME280;2964;42.144;24.730;2022-11-20T04:44:04;144962.69;;;13.63;100.00
5877;BME280;2964;42.144;24.730;2022-11-20T04:46:32;145062.19;;;14.03;100.00
5877;BME280;2964;42.144;24.730;2022-11-20T04:48:59;145147.84;;;14.38;100.00
5877;BME280;2964;42.144;24.730;2022-11-20T04:51:26;145168.03;;;14.46;100.00
5877;BME280;2964;42.144;24.730;2022-11-20T04:53:53;145165.50;;;14.45;100.00
5877;BME280;2964;42.144;24.730;2022-11-20T04:56:20;145165.50;;;14.45;100.00
5877;BME280;2964;42.144;24.730;2022-11-20T04:58:48;145171.81;;;14.48;100.00
5877;BME280;2964;42.144;24.730;2022-11-20T05:01:16;145125.16;;;14.29;100.00
5877;BME280;2964;42.144;24.730;2022-11-20T05:03:44;145178.09;;;14.51;100.00
5877;BME280;2964;42.144;24.730;2022-11-20T05:06:13;145194.53;;;14.57;100.00
5877;BME280;2964;42.144;24.730;2022-11-20T05:08:40;145258.81;;;14.83;100.00
5877;BME280;2964;42.144;24.730;2022-11-20T05:11:09;145297.84;;;14.99;100.00
5877;BME280;2964;42.144;24.730;2022-11-20T05:13:36;145271.41;;;14.89;100.00
5877;BME280;2964;42.144;24.730;2022-11-20T05:16:06;145165.50;;;14.45;100.00
5877;BME280;2964;42.144;24.730;2022-11-20T05:18:33;144931.22;;;13.50;100.00
5877;BME280;2964;42.144;24.730;2022-11-20T05:21:00;145052.13;;;13.99;100.00
5877;BME280;2964;42.144;24.730;2022-11-20T05:23:28;145039.50;;;13.94;100.00
5877;BME280;2964;42.144;24.730;2022-11-20T05:25:56;145139.03;;;14.35;100.00
5877;BME280;2964;42.144;24.730;2022-11-20T05:28:23;145055.91;;;14.01;100.00
5877;BME280;2964;42.144;24.730;2022-11-20T05:30:50;145136.53;;;14.34;100.00
5877;BME280;2964;42.144;24.730;2022-11-20T05:33:18;145103.78;;;14.20;100.00
5877;BME280;2964;42.144;24.730;2022-11-20T05:35:45;145127.72;;;14.30;100.00
5877;BME280;2964;42.144;24.730;2022-11-20T05:38:13;145125.16;;;14.29;100.00
5877;BME280;2964;42.144;24.730;2022-11-20T05:40:39;145065.97;;;14.05;100.00
5877;BME280;2964;42.144;24.730;2022-11-20T05:43:06;145049.63;;;13.98;100.00
5877;BME280;2964;42.144;24.730;2022-11-20T05:45:33;145044.59;;;13.96;100.00
5877;BME280;2964;42.144;24.730;2022-11-20T05:48:00;145102.50;;;14.20;100.00
5877;BME280;2964;42.144;24.730;2022-11-20T05:50:28;144884.66;;;13.31;100.00
5877;BME280;2964;42.144;24.730;2022-11-20T05:52:55;145130.19;;;14.31;100.00
5877;BME280;2964;42.144;24.730;2022-11-20T05:55:23;145052.13;;;13.99;100.00
5877;BME280;2964;42.144;24.730;2022-11-20T05:57:52;145067.25;;;14.05;100.00
5877;BME280;2964;42.144;24.730;2022-11-20T06:00:19;145068.50;;;14.06;100.00
5877;BME280;2964;42.144;24.730;2022-11-20T06:02:45;145094.97;;;14.17;100.00
5877;BME280;2964;42.144;24.730;2022-11-20T06:05:12;145084.84;;;14.13;100.00
5877;BME280;2964;42.144;24.730;2022-11-20T06:07:40;145146.59;;;14.38;100.00
5877;BME280;2964;42.144;24.730;2022-11-20T06:10:08;145160.44;;;14.43;100.00
5877;BME280;2964;42.144;24.730;2022-11-20T06:12:34;145137.78;;;14.34;100.00
5877;BME280;2964;42.144;24.730;2022-11-20T06:15:01;145132.75;;;14.32;100.00
5877;BME280;2964;42.144;24.730;2022-11-20T06:17:28;145180.63;;;14.52;100.00
5877;BME280;2964;42.144;24.730;2022-11-20T06:19:54;145147.84;;;14.38;100.00
5877;BME280;2964;42.144;24.730;2022-11-20T06:22:21;145110.06;;;14.23;100.00
5877;BME280;2964;42.144;24.730;2022-11-20T06:24:49;145111.31;;;14.23;100.00
5877;BME280;2964;42.144;24.730;2022-11-20T06:27:16;145097.47;;;14.18;100.00
5877;BME280;2964;42.144;24.730;2022-11-20T06:29:42;145110.06;;;14.23;100.00
5877;BME280;2964;42.144;24.730;2022-11-20T06:32:09;145094.97;;;14.17;100.00
5877;BME280;2964;42.144;24.730;2022-11-20T06:34:36;145115.09;;;14.25;100.00
5877;BME280;2964;42.144;24.730;2022-11-20T06:37:02;145118.88;;;14.26;100.00
5877;BME280;2964;42.144;24.730;2022-11-20T06:39:29;145181.88;;;14.52;100.00
5877;BME280;2964;42.144;24.730;2022-11-20T06:41:57;145204.63;;;14.61;100.00
5877;BME280;2964;42.144;24.730;2022-11-20T06:44:24;145217.22;;;14.66;100.00
5877;BME280;2964;42.144;24.730;2022-11-20T06:46:50;145122.66;;;14.28;100.00
5877;BME280;2964;42.144;24.730;2022-11-20T06:49:17;145321.81;;;15.09;100.00
5877;BME280;2964;42.144;24.730;2022-11-20T06:51:44;145401.22;;;15.41;100.00
5877;BME280;2964;42.144;24.730;2022-11-20T06:54:10;145347.00;;;15.19;100.00
5877;BME280;2964;42.144;24.730;2022-11-20T06:56:37;145273.91;;;14.90;100.00
5877;BME280;2964;42.144;24.730;2022-11-20T06:59:06;145300.38;;;15.00;100.00
5877;BME280;2964;42.144;24.730;2022-11-20T07:01:33;145335.69;;;15.15;100.00
5877;BME280;2964;42.144;24.730;2022-11-20T07:04:00;145336.94;;;15.15;100.00
5877;BME280;2964;42.144;24.730;2022-11-20T07:06:27;145343.22;;;15.18;100.00
5877;BME280;2964;42.144;24.730;2022-11-20T07:08:53;145407.56;;;15.44;100.00
5877;BME280;2964;42.144;24.730;2022-11-20T07:11:20;145408.81;;;15.44;100.00
5877;BME280;2964;42.144;24.730;2022-11-20T07:13:47;145451.66;;;15.62;100.00
5877;BME280;2964;42.144;24.730;2022-11-20T07:16:15;145406.25;;;15.43;100.00
5877;BME280;2964;42.144;24.730;2022-11-20T07:18:42;145442.81;;;15.58;100.00
5877;BME280;2964;42.144;24.730;2022-11-20T07:21:10;145371.00;;;15.29;100.00
5877;BME280;2964;42.144;24.730;2022-11-20T07:23:37;145417.63;;;15.48;100.00
5877;BME280;2964;42.144;24.730;2022-11-20T07:26:04;145432.75;;;15.54;100.00
5877;BME280;2964;42.144;24.730;2022-11-20T07:28:31;145465.53;;;15.68;100.00
5877;BME280;2964;42.144;24.730;2022-11-20T07:30:58;145500.88;;;15.82;100.00
5877;BME280;2964;42.144;24.730;2022-11-20T07:33:26;145418.88;;;15.49;100.00
5877;BME280;2964;42.144;24.730;2022-11-20T07:35:52;145518.56;;;15.89;100.00
5877;BME280;2964;42.144;24.730;2022-11-20T07:38:19;145550.09;;;16.02;100.00
5877;BME280;2964;42.144;24.730;2022-11-20T07:40:46;145569.00;;;16.10;100.00
5877;BME280;2964;42.144;24.730;2022-11-20T07:43:12;145550.09;;;16.02;100.00
5877;BME280;2964;42.144;24.730;2022-11-20T07:45:39;145589.22;;;16.18;100.00
5877;BME280;2964;42.144;24.730;2022-11-20T07:48:06;145542.50;;;15.99;100.00
5877;BME280;2964;42.144;24.730;2022-11-20T07:50:34;145536.22;;;15.96;100.00
5877;BME280;2964;42.144;24.730;2022-11-20T07:53:03;145543.81;;;15.99;100.00
5877;BME280;2964;42.144;24.730;2022-11-20T07:55:30;145563.97;;;16.08;100.00
5877;BME280;2964;42.144;24.730;2022-11-20T07:57:57;145447.91;;;15.60;100.00
5877;BME280;2964;42.144;24.730;2022-11-20T08:00:24;145572.78;;;16.11;100.00
5877;BME280;2964;42.144;24.730;2022-11-20T08:02:51;145511.03;;;15.86;100.00
5877;BME280;2964;42.144;24.730;2022-11-20T08:05:18;145548.84;;;16.01;100.00
5877;BME280;2964;42.144;24.730;2022-11-20T08:07:46;145538.75;;;15.97;100.00
5877;BME280;2964;42.144;24.730;2022-11-20T08:10:14;145541.25;;;15.98;100.00
5877;BME280;2964;42.144;24.730;2022-11-20T08:12:46;145619.47;;;16.30;100.00
5877;BME280;2964;42.144;24.730;2022-11-20T08:15:31;145609.38;;;16.26;100.00
5877;BME280;2964;42.144;24.730;2022-11-20T08:18:02;145664.88;;;16.49;100.00
5877;BME280;2964;42.144;24.730;2022-11-20T08:20:29;145605.59;;;16.25;100.00
5877;BME280;2964;42.144;24.730;2022-11-20T08:23:02;145717.91;;;16.70;100.00
5877;BME280;2964;42.144;24.730;2022-11-20T08:25:29;145692.69;;;16.60;100.00
5877;BME280;2964;42.144;24.730;2022-11-20T08:27:59;145677.50;;;16.54;100.00
5877;BME280;2964;42.144;24.730;2022-11-20T08:30:27;145682.56;;;16.56;100.00
5877;BME280;2964;42.144;24.730;2022-11-20T08:32:54;145702.75;;;16.64;100.00
5877;BME280;2964;42.144;24.730;2022-11-20T08:35:21;145868.16;;;17.31;99.14
5877;BME280;2964;42.144;24.730;2022-11-20T08:37:48;145933.84;;;17.58;97.65
5877;BME280;2964;42.144;24.730;2022-11-20T08:40:16;145983.09;;;17.78;97.02
5877;BME280;2964;42.144;24.730;2022-11-20T08:42:47;146053.88;;;18.07;95.53
5877;BME280;2964;42.144;24.730;2022-11-20T08:45:14;146112.00;;;18.30;94.14
5877;BME280;2964;42.144;24.730;2022-11-20T08:47:41;146205.53;;;18.68;94.05
5877;BME280;2964;42.144;24.730;2022-11-20T08:50:08;146256.13;;;18.89;91.52
5877;BME280;2964;42.144;24.730;2022-11-20T08:52:35;146326.88;;;19.18;91.42
5877;BME280;2964;42.144;24.730;2022-11-20T08:55:02;146443.25;;;19.65;89.12
5877;BME280;2964;42.144;24.730;2022-11-20T08:57:32;146495.13;;;19.86;87.11
5877;BME280;2964;42.144;24.730;2022-11-20T08:59:59;146592.56;;;20.25;85.40
5877;BME280;2964;42.144;24.730;2022-11-20T09:02:26;146592.56;;;20.25;84.97
5877;BME280;2964;42.144;24.730;2022-11-20T09:04:52;146509.03;;;19.92;85.75
5877;BME280;2964;42.144;24.730;2022-11-20T09:07:19;146668.47;;;20.56;83.45
5877;BME280;2964;42.144;24.730;2022-11-20T09:09:46;146801.47;;;21.10;81.77
5877;BME280;2964;42.144;24.730;2022-11-20T09:12:13;147157.47;;;22.54;76.77
5877;BME280;2964;42.144;24.730;2022-11-20T09:14:41;147827.41;;;25.26;67.93
5877;BME280;2964;42.144;24.730;2022-11-20T09:17:09;148084.00;;;26.29;64.60
5877;BME280;2964;42.144;24.730;2022-11-20T09:19:38;148303.88;;;27.18;60.66
5877;BME280;2964;42.144;24.730;2022-11-20T09:22:06;148559.56;;;28.21;56.18
5877;BME280;2964;42.144;24.730;2022-11-20T09:24:33;148189.50;;;26.72;59.13
5877;BME280;2964;42.144;24.730;2022-11-20T09:27:02;147772.78;;;25.03;63.19
5877;BME280;2964;42.144;24.730;2022-11-20T09:29:29;148367.50;;;27.44;57.96
5877;BME280;2964;42.144;24.730;2022-11-20T09:31:57;148150.09;;;26.56;59.50
5877;BME280;2964;42.144;24.730;2022-11-20T09:34:23;147995.09;;;25.93;61.77
5877;BME280;2964;42.144;24.730;2022-11-20T09:36:50;147664.88;;;24.60;64.13
5877;BME280;2964;42.144;24.730;2022-11-20T09:39:17;147459.25;;;23.77;67.42
5877;BME280;2964;42.144;24.730;2022-11-20T09:41:58;148020.47;;;26.04;61.84
5877;BME280;2964;42.144;24.730;2022-11-20T09:44:36;147685.22;;;24.68;64.07
5877;BME280;2964;42.144;24.730;2022-11-20T09:47:08;147554.44;;;24.15;66.77
5877;BME280;2964;42.144;24.730;2022-11-20T09:49:50;147326.13;;;23.23;67.44
5877;BME280;2964;42.144;24.730;2022-11-20T09:52:23;147374.28;;;23.42;68.35
5877;BME280;2964;42.144;24.730;2022-11-20T09:54:54;147530.38;;;24.05;67.86
5877;BME280;2964;42.144;24.730;2022-11-20T09:57:25;147365.44;;;23.39;69.37
5877;BME280;2964;42.144;24.730;2022-11-20T10:00:00;147302.03;;;23.13;69.72
5877;BME280;2964;42.144;24.730;2022-11-20T10:02:34;147421.22;;;23.61;69.35
5877;BME280;2964;42.144;24.730;2022-11-20T10:05:05;147414.84;;;23.59;70.06
5877;BME280;2964;42.144;24.730;2022-11-20T10:07:38;147411.09;;;23.57;70.83
5877;BME280;2964;42.144;24.730;2022-11-20T10:10:14;147241.13;;;22.88;70.24
5877;BME280;2964;42.144;24.730;2022-11-20T10:12:53;147137.19;;;22.46;72.61
5877;BME280;2964;42.144;24.730;2022-11-20T10:15:33;147087.81;;;22.26;73.56
5877;BME280;2964;42.144;24.730;2022-11-20T10:18:20;147015.53;;;21.97;74.29
5877;BME280;2964;42.144;24.730;2022-11-20T10:20:55;147025.66;;;22.01;74.14
5877;BME280;2964;42.144;24.730;2022-11-20T10:23:35;147096.69;;;22.30;73.31
5877;BME280;2964;42.144;24.730;2022-11-20T10:26:17;147018.03;;;21.98;74.54
5877;BME280;2964;42.144;24.730;2022-11-20T10:28:59;147101.72;;;22.32;75.19
5877;BME280;2964;42.144;24.730;2022-11-20T10:31:32;147087.81;;;22.26;75.40
5877;BME280;2964;42.144;24.730;2022-11-20T10:34:06;146940.78;;;21.67;74.83
5877;BME280;2964;42.144;24.730;2022-11-20T10:36:37;146814.09;;;21.15;77.66
5877;BME280;2964;42.144;24.730;2022-11-20T10:39:10;146836.88;;;21.25;78.01
5877;BME280;2964;42.144;24.730;2022-11-20T10:41:42;146890.13;;;21.46;77.83
5877;BME280;2964;42.144;24.730;2022-11-20T10:44:14;146893.94;;;21.48;78.00
5877;BME280;2964;42.144;24.730;2022-11-20T10:47:01;146838.19;;;21.25;78.65
5877;BME280;2964;42.144;24.730;2022-11-20T10:49:32;146926.84;;;21.61;78.36
5877;BME280;2964;42.144;24.730;2022-11-20T10:52:06;146901.53;;;21.51;78.64
5877;BME280;2964;42.144;24.730;2022-11-20T10:54:40;146855.91;;;21.32;80.00
5877;BME280;2964;42.144;24.730;2022-11-20T10:57:18;146828.06;;;21.21;78.71
5877;BME280;2964;42.144;24.730;2022-11-20T11:00:01;146878.69;;;21.42;79.46
5877;BME280;2964;42.144;24.730;2022-11-20T11:02:35;146876.16;;;21.40;79.29
5877;BME280;2964;42.144;24.730;2022-11-20T11:05:17;146843.22;;;21.27;80.10
5877;BME280;2964;42.144;24.730;2022-11-20T11:07:50;146845.75;;;21.28;79.84
5877;BME280;2964;42.144;24.730;2022-11-20T11:10:21;146822.94;;;21.19;80.89
5877;BME280;2964;42.144;24.730;2022-11-20T11:12:50;146810.31;;;21.14;80.31
5877;BME280;2964;42.144;24.730;2022-11-20T11:15:25;146767.25;;;20.96;79.92
5877;BME280;2964;42.144;24.730;2022-11-20T11:17:53;146753.34;;;20.91;80.28
5877;BME280;2964;42.144;24.730;2022-11-20T11:20:22;146730.53;;;20.81;81.52
5877;BME280;2964;42.144;24.730;2022-11-20T11:22:51;146729.28;;;20.81;82.62
5877;BME280;2964;42.144;24.730;2022-11-20T11:25:36;146490.09;;;19.84;82.97
5877;BME280;2964;42.144;24.730;2022-11-20T11:28:05;146692.59;;;20.66;84.44
5877;BME280;2964;42.144;24.730;2022-11-20T11:30:45;146663.41;;;20.54;85.62
5877;BME280;2964;42.144;24.730;2022-11-20T11:33:19;146654.53;;;20.51;84.12
5877;BME280;2964;42.144;24.730;2022-11-20T11:35:49;146638.13;;;20.44;83.84
5877;BME280;2964;42.144;24.730;2022-11-20T11:38:21;146639.38;;;20.44;84.17
5877;BME280;2964;42.144;24.730;2022-11-20T11:40:49;146667.22;;;20.56;83.85
5877;BME280;2964;42.144;24.730;2022-11-20T11:43:19;146638.13;;;20.44;85.71
5877;BME280;2964;42.144;24.730;2022-11-20T11:46:25;146640.63;;;20.45;83.91
5877;BME280;2964;42.144;24.730;2022-11-20T11:48:57;146659.66;;;20.53;84.30
5877;BME280;2964;42.144;24.730;2022-11-20T11:51:30;146669.75;;;20.57;84.27
5877;BME280;2964;42.144;24.730;2022-11-20T11:53:59;146665.97;;;20.55;84.13
5877;BME280;2964;42.144;24.730;2022-11-20T11:56:27;146617.84;;;20.36;85.23
5877;BME280;2964;42.144;24.730;2022-11-20T11:58:57;146602.69;;;20.30;86.24
5877;BME280;2964;42.144;24.730;2022-11-20T12:01:31;146638.13;;;20.44;84.26
5877;BME280;2964;42.144;24.730;2022-11-20T12:04:04;146655.84;;;20.51;82.17
5877;BME280;2964;42.144;24.730;2022-11-20T12:06:36;146640.63;;;20.45;80.63
5877;BME280;2964;42.144;24.730;2022-11-20T12:09:08;146663.41;;;20.54;81.04
5877;BME280;2964;42.144;24.730;2022-11-20T12:11:39;146648.22;;;20.48;81.60
5877;BME280;2964;42.144;24.730;2022-11-20T12:14:14;146693.84;;;20.67;80.09
5877;BME280;2964;42.144;24.730;2022-11-20T12:16:45;146705.25;;;20.71;79.78
5877;BME280;2964;42.144;24.730;2022-11-20T12:19:13;146721.69;;;20.78;78.95
5877;BME280;2964;42.144;24.730;2022-11-20T12:21:51;146752.06;;;20.90;78.46
5877;BME280;2964;42.144;24.730;2022-11-20T12:24:33;146724.25;;;20.79;80.11
5877;BME280;2964;42.144;24.730;2022-11-20T12:27:30;146736.84;;;20.84;79.48
5877;BME280;2964;42.144;24.730;2022-11-20T12:30:04;146758.41;;;20.93;78.76
5877;BME280;2964;42.144;24.730;2022-11-20T12:32:58;146724.25;;;20.79;79.80
5877;BME280;2964;42.144;24.730;2022-11-20T12:35:48;146693.84;;;20.67;80.65
5877;BME280;2964;42.144;24.730;2022-11-20T12:38:45;146650.78;;;20.49;82.48
5877;BME280;2964;42.144;24.730;2022-11-20T12:41:27;146649.50;;;20.49;83.46
5877;BME280;2964;42.144;24.730;2022-11-20T12:44:22;146638.13;;;20.44;82.33
5877;BME280;2964;42.144;24.730;2022-11-20T12:47:19;146607.75;;;20.32;83.08
5877;BME280;2964;42.144;24.730;2022-11-20T12:49:55;146611.53;;;20.33;77.42
5877;BME280;2964;42.144;24.730;2022-11-20T12:52:35;146641.94;;;20.46;78.23
5877;BME280;2964;42.144;24.730;2022-11-20T12:55:28;146647.00;;;20.48;80.24
5877;BME280;2964;42.144;24.730;2022-11-20T12:58:00;146615.34;;;20.35;81.47
5877;BME280;2964;42.144;24.730;2022-11-20T13:00:31;146639.38;;;20.44;83.16
5877;BME280;2964;42.144;24.730;2022-11-20T13:03:21;146541.97;;;20.05;85.23
5877;BME280;2964;42.144;24.730;2022-11-20T13:05:56;146519.19;;;19.96;84.68